Noumerat/Ghardaïa

Airport
ICAO code: 
DAUG
Summary
ICAO Region: 
AFI
Territory: 
Location: 
Ghardaïa,
Coordinates: 
Aerial View: 
32° 23' 2.767" N, 3° 47' 38.796" E
Metar
Observation
DAUG 271800Z 32008KT CAVOK 31/M02 Q1016
Station
Ghardaia
Date/Time
2022-05-27 18:00:00
Wind direction
320°
Wind speed
08 kts
Lowest cloud amount
clouds and visibility OK
Temperature
31°C
Dew point
-2°C
Humidity
11%
QNH
1016 hPa
Weather condition
n/a

Description

Noumérat - Moufdi Zakaria Airport (IATA: GHA), also known as Noumerate Airport, is a public airport serving Ghardaïa, the capital of the Ghardaïa Province in Algeria. It is located 8.6 nm southeast of the city.

Climatology

Hot Desert Climate (Köppen climate classification BWh) - Hot desert climates are typically found in the subtropics where there is unbroken sunshine for the whole year due to the stable descending air and high pressure, little or no precipitation. Maximum temperatures of 40°C to 45°C are not uncommon, particularly during the warmer months of the year. During colder periods of the year, night-time temperatures can drop to freezing or below due to the exceptional radiation loss under the clear skies. However, very rarely do temperatures drop far below freezing.

Runways

Designator Length Width Surface Rops
18/36 2400 45 ASP No/No
12/30 3100 60 ASP No/No
Airport map: 
Aerial View: 

SKYbrary Partners:

Safety knowledge contributed by: